Time;durP1;ratioP1;P1;durP2;ratioP2;P2;SDS_P1;SDS_P2;PMS_P1;PMS_P2;Temp;Humidity;BMP_temperature;BMP_pressure;BME280_temperature;BME280_humidity;BME280_pressure;Samples;Min_cycle;Max_cycle;Signal;HPM_P1;HPM_P2
2023/04/02 00:01:05;;;;;;;1999.90;999.90;;;4.90;98.80;;;;;;5057015;28;20033;-81
2023/04/02 00:03:52;;;;;;;1999.90;999.90;;;4.90;98.50;;;;;;5055029;28;20386;-82
2023/04/02 00:06:33;;;;;;;1999.90;999.90;;;4.90;98.50;;;;;;5052623;28;20500;-82
2023/04/02 00:09:11;;;;;;;1999.90;999.90;;;5.00;98.50;;;;;;5055159;28;20037;-85
2023/04/02 00:11:42;;;;;;;1999.90;999.90;;;5.00;98.50;;;;;;5049877;28;20037;-85
2023/04/02 00:14:21;;;;;;;1999.90;999.90;;;4.90;98.10;;;;;;5051081;28;20503;-83
2023/04/02 00:16:48;;;;;;;1999.90;999.90;;;4.90;98.30;;;;;;5057389;28;20047;-82
2023/04/02 00:19:36;;;;;;;1999.90;999.90;;;4.90;98.30;;;;;;5059023;28;20156;-84
2023/04/02 00:22:08;;;;;;;1999.90;999.90;;;4.90;98.30;;;;;;5061406;28;20033;-81
2023/04/02 00:24:34;;;;;;;1999.90;999.90;;;4.80;98.50;;;;;;5055597;28;20505;-82
2023/04/02 00:26:59;;;;;;;1999.90;999.90;;;4.70;98.50;;;;;;5058862;28;20037;-84
2023/04/02 00:29:25;;;;;;;1999.90;999.90;;;4.70;98.70;;;;;;5055123;28;20124;-82
2023/04/02 00:31:53;;;;;;;1999.90;999.90;;;4.60;99.00;;;;;;5065892;28;20028;-82
2023/04/02 00:34:35;;;;;;;1999.90;999.90;;;4.50;99.20;;;;;;5058392;28;20033;-82
2023/04/02 00:37:01;;;;;;;1999.90;999.90;;;4.60;99.20;;;;;;5037891;28;20044;-81
2023/04/02 00:39:37;;;;;;;1999.90;999.90;;;4.50;99.30;;;;;;5061638;28;20179;-82
2023/04/02 00:42:06;;;;;;;1999.90;999.90;;;4.40;99.20;;;;;;5066344;28;20045;-81
2023/04/02 00:44:36;;;;;;;1999.90;999.90;;;4.40;99.60;;;;;;5060619;28;20033;-81
2023/04/02 00:47:19;;;;;;;1999.90;999.90;;;4.30;99.60;;;;;;5052738;28;20037;-81
2023/04/02 00:49:46;;;;;;;1999.90;999.90;;;4.40;99.70;;;;;;5058932;28;20450;-81
2023/04/02 00:52:19;;;;;;;1999.90;999.90;;;4.40;99.80;;;;;;5065494;28;20084;-80
2023/04/02 00:54:51;;;;;;;1999.90;999.90;;;4.40;99.80;;;;;;5040518;28;20415;-81
2023/04/02 00:57:24;;;;;;;1999.90;999.90;;;4.40;99.70;;;;;;5063305;28;20024;-81
2023/04/02 01:00:18;;;;;;;1999.90;999.90;;;4.40;99.60;;;;;;5041558;28;20049;-81
2023/04/02 01:03:16;;;;;;;1999.90;999.90;;;4.40;99.60;;;;;;5042438;28;20033;-81
2023/04/02 01:05:44;;;;;;;1999.90;999.90;;;4.40;99.50;;;;;;5066030;28;20048;-83
2023/04/02 01:08:25;;;;;;;1999.90;999.90;;;4.50;99.60;;;;;;5053390;28;20028;-82
2023/04/02 01:11:06;;;;;;;1999.90;999.90;;;4.50;99.50;;;;;;5060077;28;20032;-82
2023/04/02 01:13:32;;;;;;;1999.90;999.90;;;4.60;99.40;;;;;;5052948;28;20035;-81
2023/04/02 01:16:03;;;;;;;1999.90;999.90;;;4.60;99.40;;;;;;5059373;28;20406;-81
2023/04/02 01:19:00;;;;;;;1999.90;999.90;;;4.60;99.30;;;;;;5053313;28;20075;-82
2023/04/02 01:21:45;;;;;;;1999.90;999.90;;;4.70;99.20;;;;;;5058003;28;20483;-81
2023/04/02 01:24:12;;;;;;;1999.90;999.90;;;4.70;99.00;;;;;;5058268;28;20059;-83
2023/04/02 01:26:43;;;;;;;1999.90;999.90;;;4.70;99.00;;;;;;5059869;28;20031;-82
2023/04/02 01:29:20;;;;;;;1999.90;999.90;;;4.60;99.40;;;;;;5053566;28;20078;-81
2023/04/02 01:31:48;;;;;;;1999.90;999.90;;;4.60;99.00;;;;;;5060951;28;20426;-81
2023/04/02 01:34:17;;;;;;;1999.90;999.90;;;4.60;98.90;;;;;;5040846;28;20036;-82
2023/04/02 01:36:49;;;;;;;1999.90;999.90;;;4.70;98.80;;;;;;5055910;28;20400;-81
2023/04/02 01:39:39;;;;;;;1999.90;999.90;;;4.60;98.70;;;;;;5048062;28;20041;-81
2023/04/02 01:42:20;;;;;;;1999.90;999.90;;;4.50;98.80;;;;;;5062485;28;20116;-80
2023/04/02 01:44:49;;;;;;;1999.90;999.90;;;4.50;98.90;;;;;;5059655;28;20526;-81
2023/04/02 01:47:19;;;;;;;1999.90;999.90;;;4.40;98.90;;;;;;5044757;28;20021;-80
2023/04/02 01:49:45;;;;;;;1999.90;999.90;;;4.30;98.90;;;;;;5062584;28;20032;-81
2023/04/02 01:52:25;;;;;;;1999.90;999.90;;;4.30;99.10;;;;;;5035251;28;20053;-81
2023/04/02 01:54:51;;;;;;;1999.90;999.90;;;4.30;99.40;;;;;;5043075;28;20022;-81
2023/04/02 01:57:17;;;;;;;1999.90;999.90;;;4.20;99.40;;;;;;5046859;28;20499;-79
2023/04/02 01:59:44;;;;;;;1999.90;999.90;;;4.10;99.40;;;;;;5041305;28;20025;-82
2023/04/02 02:02:12;;;;;;;1999.90;999.90;;;4.10;99.40;;;;;;5053398;28;20036;-83
2023/04/02 02:04:38;;;;;;;1999.90;999.90;;;4.00;99.30;;;;;;5063777;28;20104;-81
2023/04/02 02:07:04;;;;;;;1999.90;999.90;;;4.00;99.40;;;;;;5060934;28;20189;-80
2023/04/02 02:09:36;;;;;;;1999.90;999.90;;;3.90;99.50;;;;;;5063019;28;20032;-80
2023/04/02 02:12:04;;;;;;;1999.90;999.90;;;3.90;99.90;;;;;;5063686;28;20029;-81
2023/04/02 02:14:30;;;;;;;1999.90;999.90;;;3.90;99.90;;;;;;5055631;28;20044;-81
2023/04/02 02:17:01;;;;;;;1999.90;999.90;;;4.00;99.90;;;;;;5063663;28;20400;-80
2023/04/02 02:19:41;;;;;;;1999.90;999.90;;;4.10;99.90;;;;;;5065084;28;20025;-81
2023/04/02 02:22:13;;;;;;;1999.90;999.90;;;4.10;99.70;;;;;;5043930;28;20039;-81
2023/04/02 02:24:39;;;;;;;1999.90;999.90;;;4.20;99.60;;;;;;5059713;28;20024;-81
2023/04/02 02:27:23;;;;;;;1999.90;999.90;;;4.10;99.40;;;;;;5058046;28;20029;-81
2023/04/02 02:29:52;;;;;;;1999.90;999.90;;;4.10;99.50;;;;;;5061457;28;20029;-81
2023/04/02 02:32:24;;;;;;;1999.90;999.90;;;4.10;99.10;;;;;;5058301;28;20060;-81
2023/04/02 02:35:00;;;;;;;1999.90;999.90;;;3.90;99.20;;;;;;5058367;28;20517;-80
2023/04/02 02:37:29;;;;;;;1999.90;999.90;;;4.00;99.50;;;;;;5059551;28;20067;-81
2023/04/02 02:39:59;;;;;;;1999.90;999.90;;;4.00;99.50;;;;;;5059053;28;20076;-81
2023/04/02 02:42:40;;;;;;;1999.90;999.90;;;3.90;99.40;;;;;;5057635;28;20044;-81
2023/04/02 02:45:19;;;;;;;1999.90;999.90;;;4.00;99.50;;;;;;5042661;28;20025;-80
2023/04/02 02:47:47;;;;;;;1999.90;999.90;;;4.00;99.50;;;;;;5056277;28;20751;-80
2023/04/02 02:50:26;;;;;;;1999.90;999.90;;;4.10;99.20;;;;;;5063982;28;20426;-80
2023/04/02 02:52:56;;;;;;;1999.90;999.90;;;4.10;99.10;;;;;;5065359;28;20048;-80
2023/04/02 02:55:30;;;;;;;1999.90;999.90;;;4.20;99.00;;;;;;5054410;28;20037;-80
2023/04/02 02:58:08;;;;;;;1999.90;999.90;;;4.10;98.70;;;;;;5057454;28;20029;-80
2023/04/02 03:00:36;;;;;;;1999.90;999.90;;;4.10;98.60;;;;;;5061081;28;20486;-80
2023/04/02 03:03:06;;;;;;;1999.90;999.90;;;4.10;98.50;;;;;;5061878;28;20041;-80
2023/04/02 03:05:31;;;;;;;1999.90;999.90;;;4.00;98.50;;;;;;5055660;28;20335;-79
2023/04/02 03:08:01;;;;;;;1999.90;999.90;;;4.10;98.70;;;;;;5060127;28;20291;-80
2023/04/02 03:10:43;;;;;;;1999.90;999.90;;;4.00;99.00;;;;;;5057511;28;20044;-78
2023/04/02 03:13:34;;;;;;;1999.90;999.90;;;4.00;98.50;;;;;;5064336;28;20085;-78
2023/04/02 03:16:17;;;;;;;1999.90;999.90;;;3.90;98.60;;;;;;5058449;28;20033;-79
2023/04/02 03:19:08;;;;;;;1999.90;999.90;;;3.90;98.50;;;;;;5058188;28;20371;-79
2023/04/02 03:21:50;;;;;;;1999.90;999.90;;;3.90;98.50;;;;;;5052191;28;20043;-80
2023/04/02 03:24:17;;;;;;;1999.90;999.90;;;3.80;98.60;;;;;;5060454;28;20032;-79
2023/04/02 03:26:52;;;;;;;1999.90;999.90;;;3.80;98.50;;;;;;5055409;28;20028;-81
2023/04/02 03:29:25;;;;;;;1999.90;999.90;;;3.80;98.40;;;;;;5061214;28;20044;-79
2023/04/02 03:32:21;;;;;;;1999.90;999.90;;;3.70;98.40;;;;;;5059499;28;20054;-79
2023/04/02 03:34:52;;;;;;;1999.90;999.90;;;3.70;98.50;;;;;;5054858;28;20084;-80
2023/04/02 03:37:18;;;;;;;1999.90;999.90;;;3.70;98.60;;;;;;5058038;28;20211;-80
2023/04/02 03:39:58;;;;;;;1999.90;999.90;;;3.60;98.70;;;;;;5048602;28;20032;-79
2023/04/02 03:42:39;;;;;;;1999.90;999.90;;;3.60;98.80;;;;;;5055695;28;20487;-80
2023/04/02 03:45:19;;;;;;;1999.90;999.90;;;3.60;99.00;;;;;;5072123;28;20064;-80
2023/04/02 03:48:32;;;;;;;1999.90;999.90;;;3.60;99.00;;;;;;5042355;28;20041;-80
2023/04/02 03:51:16;;;;;;;1999.90;999.90;;;3.60;99.30;;;;;;5056410;28;20207;-79
2023/04/02 03:53:43;;;;;;;1999.90;999.90;;;3.70;99.20;;;;;;5063347;28;20032;-80
2023/04/02 03:56:38;;;;;;;1999.90;999.90;;;3.70;99.40;;;;;;5057014;28;20037;-80
2023/04/02 03:59:25;;;;;;;1999.90;999.90;;;3.70;99.30;;;;;;5067393;28;20505;-81
2023/04/02 04:02:00;;;;;;;1999.90;999.90;;;3.70;99.50;;;;;;5064839;28;20029;-80
2023/04/02 04:04:29;;;;;;;1999.90;999.90;;;3.70;99.40;;;;;;5067209;28;20030;-80
2023/04/02 04:06:56;;;;;;;1999.90;999.90;;;3.70;99.30;;;;;;5060340;28;20075;-80
2023/04/02 04:09:30;;;;;;;1999.90;999.90;;;3.70;99.50;;;;;;5063310;28;20055;-81
2023/04/02 04:12:19;;;;;;;1999.90;999.90;;;3.70;99.40;;;;;;5062733;28;20037;-79
2023/04/02 04:14:54;;;;;;;1999.90;999.90;;;3.70;99.30;;;;;;5094520;28;20053;-80
2023/04/02 04:17:52;;;;;;;1999.90;999.90;;;3.70;99.40;;;;;;5063083;28;20553;-81
2023/04/02 04:20:32;;;;;;;1999.90;999.90;;;3.70;99.40;;;;;;5066581;28;20025;-80
2023/04/02 04:23:15;;;;;;;1999.90;999.90;;;3.70;99.40;;;;;;5062443;28;20082;-82
2023/04/02 04:25:41;;;;;;;1999.90;999.90;;;3.70;99.50;;;;;;5048511;28;20049;-80
2023/04/02 04:28:18;;;;;;;1999.90;999.90;;;3.70;99.50;;;;;;5065561;28;20036;-79
2023/04/02 04:31:19;;;;;;;1999.90;999.90;;;3.70;99.60;;;;;;5059306;28;20037;-80
2023/04/02 04:33:49;;;;;;;1999.90;999.90;;;3.80;99.60;;;;;;5064955;28;20059;-81
2023/04/02 04:36:34;;;;;;;1999.90;999.90;;;3.80;99.50;;;;;;5062885;28;20067;-80
2023/04/02 04:39:13;;;;;;;1999.90;999.90;;;3.90;99.40;;;;;;5056865;28;20057;-80
2023/04/02 04:41:41;;;;;;;1999.90;999.90;;;4.00;99.40;;;;;;5062216;28;20021;-82
2023/04/02 04:44:27;;;;;;;1999.90;999.90;;;4.00;99.30;;;;;;5057571;28;20033;-81
2023/04/02 04:47:04;;;;;;;1999.90;999.90;;;4.10;99.20;;;;;;5062950;28;20033;-82
2023/04/02 04:49:41;;;;;;;1999.90;999.90;;;4.10;99.10;;;;;;5056235;28;20094;-82
2023/04/02 04:52:08;;;;;;;1999.90;999.90;;;4.10;99.00;;;;;;5050998;28;20037;-80
2023/04/02 04:54:38;;;;;;;1999.90;999.90;;;4.10;99.00;;;;;;5055462;28;20036;-81
2023/04/02 04:57:06;;;;;;;1999.90;999.90;;;4.20;98.90;;;;;;5055786;28;20021;-81
2023/04/02 04:59:43;;;;;;;1999.90;999.90;;;4.30;98.80;;;;;;5057270;28;20036;-80
2023/04/02 05:02:21;;;;;;;1999.90;999.90;;;4.30;98.70;;;;;;5058542;28;20036;-81
2023/04/02 05:04:50;;;;;;;1999.90;999.90;;;4.30;98.70;;;;;;5061490;28;20028;-81
2023/04/02 05:07:29;;;;;;;1999.90;999.90;;;4.30;98.50;;;;;;5053735;28;20541;-80
2023/04/02 05:10:06;;;;;;;1999.90;999.90;;;4.30;98.60;;;;;;5042047;28;20033;-83
2023/04/02 05:12:38;;;;;;;1999.90;999.90;;;4.30;98.60;;;;;;5056668;28;20078;-81
2023/04/02 05:15:15;;;;;;;1999.90;999.90;;;4.30;98.50;;;;;;5057809;28;20030;-80
2023/04/02 05:18:05;;;;;;;1999.90;999.90;;;4.30;98.40;;;;;;5057484;28;20104;-81
2023/04/02 05:20:36;;;;;;;1999.90;999.90;;;4.30;98.40;;;;;;5055119;28;20489;-81
2023/04/02 05:23:18;;;;;;;1999.90;999.90;;;4.40;98.40;;;;;;5044584;28;20406;-80
2023/04/02 05:26:15;;;;;;;1999.90;999.90;;;4.50;98.50;;;;;;5042287;28;20041;-80
2023/04/02 05:29:14;;;;;;;1999.90;999.90;;;4.50;98.50;;;;;;5051187;28;20064;-82
2023/04/02 05:31:47;;;;;;;1999.90;999.90;;;4.70;98.20;;;;;;5041071;28;20546;-82
2023/04/02 05:34:20;;;;;;;1999.90;999.90;;;4.70;98.10;;;;;;5045801;28;20505;-81
2023/04/02 05:36:49;;;;;;;1999.90;999.90;;;4.70;98.10;;;;;;5040088;28;20064;-82
2023/04/02 05:39:23;;;;;;;1999.90;999.90;;;4.70;97.90;;;;;;5046992;28;20128;-81
2023/04/02 05:42:04;;;;;;;1999.90;999.90;;;4.80;98.00;;;;;;5049034;28;20136;-83
2023/04/02 05:44:37;;;;;;;1999.90;999.90;;;4.80;97.70;;;;;;5051445;28;20033;-82
2023/04/02 05:47:39;;;;;;;1999.90;999.90;;;4.90;97.90;;;;;;5047327;28;20045;-80
2023/04/02 05:50:08;;;;;;;1999.90;999.90;;;5.00;97.50;;;;;;5047394;28;20055;-82
2023/04/02 05:52:44;;;;;;;1999.90;999.90;;;5.00;97.50;;;;;;5051338;28;20036;-82
2023/04/02 05:55:15;;;;;;;1999.90;999.90;;;5.20;97.20;;;;;;5057268;28;20036;-83
2023/04/02 05:58:03;;;;;;;1999.90;999.90;;;5.20;97.30;;;;;;5053182;28;20021;-81
2023/04/02 06:00:50;;;;;;;1999.90;999.90;;;5.20;97.00;;;;;;5050404;28;20046;-84
2023/04/02 06:03:38;;;;;;;1999.90;999.90;;;5.30;97.00;;;;;;5049819;28;20036;-82
2023/04/02 06:06:20;;;;;;;1999.90;999.90;;;5.40;96.90;;;;;;5051173;28;20025;-83
2023/04/02 06:09:00;;;;;;;1999.90;999.90;;;5.50;96.60;;;;;;5062086;28;20036;-83
2023/04/02 06:11:31;;;;;;;1999.90;999.90;;;5.70;96.40;;;;;;5046187;28;20032;-82
2023/04/02 06:13:57;;;;;;;;;;;5.70;95.80;;;;;;5050196;28;20029;-85
2023/04/02 06:16:27;;;;;;;1999.90;999.90;;;5.70;95.70;;;;;;5057545;28;19916;-84
2023/04/02 06:18:54;;;;;;;1999.90;999.90;;;5.90;95.60;;;;;;5056591;28;20032;-84
2023/04/02 06:21:21;;;;;;;1999.90;999.90;;;5.80;95.70;;;;;;5056814;28;20035;-83
2023/04/02 06:24:00;;;;;;;1999.90;999.90;;;5.90;95.50;;;;;;5060246;28;20025;-82
2023/04/02 06:26:30;;;;;;;1999.90;999.90;;;6.00;95.50;;;;;;5050887;28;20033;-85
2023/04/02 06:29:15;;;;;;;1999.90;999.90;;;6.10;95.20;;;;;;5051396;28;20089;-84
2023/04/02 06:31:50;;;;;;;1999.90;999.90;;;6.10;94.90;;;;;;5060147;28;20038;-83
2023/04/02 06:34:19;;;;;;;1999.90;999.90;;;6.00;94.80;;;;;;5056431;28;20104;-80
2023/04/02 06:36:45;;;;;;;1999.90;999.90;;;6.20;94.40;;;;;;5060465;28;20057;-87
2023/04/02 06:39:18;;;;;;;1999.90;999.90;;;6.30;94.70;;;;;;5047687;28;20033;-83
2023/04/02 06:41:44;;;;;;;1999.90;999.90;;;6.30;94.40;;;;;;5056606;28;21251;-84
2023/04/02 06:44:18;;;;;;;1999.90;999.90;;;6.50;94.40;;;;;;5056754;28;20029;-84
2023/04/02 06:46:45;;;;;;;1999.90;999.90;;;6.50;94.00;;;;;;5050808;28;20107;-81
2023/04/02 06:49:38;;;;;;;1999.90;999.90;;;6.50;93.90;;;;;;5055699;28;20032;-86
2023/04/02 06:52:23;;;;;;;1999.90;999.90;;;6.70;94.00;;;;;;5055162;28;20109;-84
2023/04/02 06:54:48;;;;;;;1999.90;999.90;;;6.70;93.40;;;;;;5059945;28;20037;-82
2023/04/02 06:57:14;;;;;;;1999.90;999.90;;;6.70;93.50;;;;;;5054917;28;20029;-84
2023/04/02 06:59:40;;;;;;;1999.90;999.90;;;6.60;93.70;;;;;;5055483;28;20092;-85
2023/04/02 07:02:26;;;;;;;1999.90;999.90;;;6.50;93.70;;;;;;5052392;28;20509;-84
2023/04/02 07:04:59;;;;;;;1999.90;999.90;;;6.70;94.10;;;;;;5049416;28;20398;-82
2023/04/02 07:07:24;;;;;;;1999.90;999.90;;;6.70;93.30;;;;;;5050037;28;20025;-83
2023/04/02 07:09:50;;;;;;;1999.90;999.90;;;6.90;93.80;;;;;;5052785;28;20044;-84
2023/04/02 07:12:21;;;;;;;1999.90;999.90;;;7.10;93.40;;;;;;5050876;28;20029;-81
2023/04/02 07:14:47;;;;;;;1999.90;999.90;;;7.30;93.40;;;;;;5048063;28;20358;-88
2023/04/02 07:17:16;;;;;;;1999.90;999.90;;;7.30;92.70;;;;;;5052946;28;20510;-81
2023/04/02 07:19:44;;;;;;;1999.90;999.90;;;7.50;92.70;;;;;;5055260;28;20025;-85
2023/04/02 07:22:11;;;;;;;1999.90;999.90;;;7.50;91.80;;;;;;5051289;28;20029;-86
2023/04/02 07:24:50;;;;;;;1999.90;999.90;;;7.60;91.90;;;;;;5046979;28;20036;-87
2023/04/02 07:27:23;;;;;;;1999.90;999.90;;;7.60;91.90;;;;;;5055106;28;20057;-88
2023/04/02 07:29:48;;;;;;;1999.90;999.90;;;7.50;91.50;;;;;;5046145;28;20247;-88
2023/04/02 07:32:14;;;;;;;1999.90;999.90;;;8.00;91.80;;;;;;5056380;28;20056;-86
2023/04/02 07:34:40;;;;;;;1999.90;999.90;;;8.10;91.10;;;;;;5058492;28;20037;-90
2023/04/02 07:37:07;;;;;;;1999.90;999.90;;;8.00;90.80;;;;;;5057122;28;20036;-90
2023/04/02 07:39:33;;;;;;;1999.90;999.90;;;8.00;90.80;;;;;;5052355;28;20045;-88
2023/04/02 07:42:00;;;;;;;1999.90;999.90;;;8.20;90.60;;;;;;5046952;28;20040;-88
2023/04/02 07:44:27;;;;;;;1999.90;999.90;;;8.20;90.10;;;;;;5062591;28;20029;-89
2023/04/02 07:46:54;;;;;;;1999.90;999.90;;;8.20;90.30;;;;;;5061073;28;20036;-88
2023/04/02 07:49:20;;;;;;;1999.90;999.90;;;8.20;89.70;;;;;;5040156;28;20068;-89
2023/04/02 07:51:46;;;;;;;1999.90;999.90;;;8.00;90.40;;;;;;5055960;28;20025;-87
2023/04/02 07:54:12;;;;;;;1999.90;999.90;;;8.20;90.50;;;;;;5056836;28;20024;-90
2023/04/02 07:56:38;;;;;;;1999.90;999.90;;;8.20;89.70;;;;;;5058067;28;20029;-86
2023/04/02 07:59:06;;;;;;;1999.90;999.90;;;8.30;89.00;;;;;;5054913;28;20078;-91
2023/04/02 08:01:35;;;;;;;1999.90;999.90;;;8.50;88.80;;;;;;5049972;28;20057;-91
2023/04/02 08:04:04;;;;;;;1999.90;999.90;;;8.60;86.90;;;;;;5051753;28;20040;-88
2023/04/02 08:06:30;;;;;;;1999.90;999.90;;;8.80;87.50;;;;;;5050059;28;20045;-86
2023/04/02 08:08:57;;;;;;;1999.90;999.90;;;8.60;87.60;;;;;;5055411;28;20163;-84
2023/04/02 08:11:23;;;;;;;1999.90;999.90;;;8.80;87.80;;;;;;5054835;28;20044;-88
2023/04/02 08:13:49;;;;;;;1999.90;999.90;;;8.70;86.30;;;;;;5049521;28;20044;-90
2023/04/02 08:16:15;;;;;;;1999.90;999.90;;;8.70;89.00;;;;;;5049529;28;20576;-88
2023/04/02 08:18:42;;;;;;;1999.90;999.90;;;8.70;86.30;;;;;;5059738;28;20060;-84
2023/04/02 08:21:13;;;;;;;1999.90;999.90;;;8.70;84.10;;;;;;5055211;28;20061;-87
2023/04/02 08:23:38;;;;;;;1999.90;999.90;;;8.90;83.80;;;;;;5052042;28;20135;-88
2023/04/02 08:26:05;;;;;;;1999.90;999.90;;;9.20;84.20;;;;;;5036903;28;20491;-88
2023/04/02 08:28:31;;;;;;;1999.90;999.90;;;9.40;82.50;;;;;;5060328;28;20087;-90
2023/04/02 08:30:57;;;;;;;1999.90;999.90;;;9.50;81.10;;;;;;5055046;28;20025;-88
2023/04/02 08:33:23;;;;;;;1999.90;999.90;;;9.40;81.20;;;;;;5053486;28;20036;-87
2023/04/02 08:35:49;;;;;;;1999.90;999.90;;;9.40;79.70;;;;;;5050407;28;20053;-85
2023/04/02 08:38:18;;;;;;;1999.90;999.90;;;9.60;79.60;;;;;;5051769;28;20123;-89
2023/04/02 08:40:50;;;;;;;1999.90;999.90;;;9.90;79.00;;;;;;5052473;28;20519;-90
2023/04/02 08:43:39;;;;;;;1999.90;999.90;;;10.00;78.00;;;;;;5058378;28;20025;-86
2023/04/02 08:46:08;;;;;;;1999.90;999.90;;;10.10;77.70;;;;;;5058750;28;20021;-89
2023/04/02 08:48:37;;;;;;;1999.90;999.90;;;9.90;77.20;;;;;;5052145;28;20033;-85
2023/04/02 08:51:05;;;;;;;1999.90;999.90;;;10.00;76.60;;;;;;5044683;28;20487;-89
2023/04/02 08:53:34;;;;;;;1999.90;999.90;;;10.00;76.10;;;;;;5058664;28;20024;-85
2023/04/02 08:56:18;;;;;;;1999.90;999.90;;;10.00;75.50;;;;;;5053571;28;20032;-87
2023/04/02 08:58:54;;;;;;;1999.90;999.90;;;10.10;75.80;;;;;;5054115;28;20054;-88
2023/04/02 09:01:42;;;;;;;1999.90;999.90;;;10.50;76.30;;;;;;5047942;28;20029;-84
2023/04/02 09:04:20;;;;;;;1999.90;999.90;;;10.60;75.70;;;;;;5048731;28;20095;-88
2023/04/02 09:06:48;;;;;;;1999.90;999.90;;;10.50;75.40;;;;;;5055496;28;20089;-89
2023/04/02 09:09:15;;;;;;;1999.90;999.90;;;10.50;75.10;;;;;;5050277;28;20037;-88
2023/04/02 09:11:47;;;;;;;1999.90;999.90;;;10.60;74.60;;;;;;5054295;28;20028;-88
2023/04/02 09:14:18;;;;;;;1999.90;999.90;;;10.20;74.80;;;;;;5050140;28;20028;-87
2023/04/02 09:16:56;;;;;;;1999.90;999.90;;;10.00;77.20;;;;;;5052520;28;20032;-88
2023/04/02 09:19:29;;;;;;;1999.90;999.90;;;9.80;75.20;;;;;;5046737;28;20035;-84
2023/04/02 09:21:58;;;;;;;1999.90;999.90;;;9.60;75.60;;;;;;5057753;28;20024;-87
2023/04/02 09:24:24;;;;;;;1999.90;999.90;;;9.40;76.90;;;;;;5054398;28;20029;-89
2023/04/02 09:26:50;;;;;;;1999.90;999.90;;;9.30;77.60;;;;;;5055012;28;20364;-87
2023/04/02 09:29:21;;;;;;;1999.90;999.90;;;9.30;78.30;;;;;;5058928;28;20079;-86
2023/04/02 09:32:00;;;;;;;1999.90;999.90;;;9.50;77.70;;;;;;5053674;28;20039;-82
2023/04/02 09:34:31;;;;;;;1999.90;999.90;;;9.40;77.70;;;;;;5058540;28;20502;-85
2023/04/02 09:37:06;;;;;;;1999.90;999.90;;;9.70;77.00;;;;;;5054254;28;20045;-85
2023/04/02 09:39:32;;;;;;;1999.90;999.90;;;10.00;76.30;;;;;;5055010;28;20048;-85
2023/04/02 09:41:58;;;;;;;1999.90;999.90;;;9.90;74.50;;;;;;5054198;28;20491;-87
2023/04/02 09:44:24;;;;;;;1999.90;999.90;;;10.00;75.50;;;;;;5046381;28;20040;-82
2023/04/02 09:47:02;;;;;;;1999.90;999.90;;;10.20;75.70;;;;;;5047881;28;20029;-85
2023/04/02 09:49:36;;;;;;;1999.90;999.90;;;10.50;74.80;;;;;;5045927;28;20490;-86
2023/04/02 09:52:19;;;;;;;1999.90;999.90;;;10.40;72.70;;;;;;5058807;28;20049;-85
2023/04/02 09:54:46;;;;;;;1999.90;999.90;;;10.70;73.30;;;;;;5047502;28;20108;-87
2023/04/02 09:57:23;;;;;;;1999.90;999.90;;;11.00;71.70;;;;;;5053839;28;20032;-84
2023/04/02 10:00:16;;;;;;;1999.90;999.90;;;10.70;70.50;;;;;;5046221;28;20041;-88
2023/04/02 10:02:42;;;;;;;1999.90;999.90;;;10.90;70.40;;;;;;5052764;28;20021;-83
2023/04/02 10:05:19;;;;;;;1999.90;999.90;;;10.90;70.20;;;;;;5056731;28;20029;-83
2023/04/02 10:07:47;;;;;;;1999.90;999.90;;;11.10;70.40;;;;;;5054552;28;20037;-87
2023/04/02 10:10:20;;;;;;;1999.90;999.90;;;11.10;70.20;;;;;;5057031;28;20032;-85
2023/04/02 10:13:09;;;;;;;1999.90;999.90;;;10.90;69.40;;;;;;5057763;28;20058;-85
2023/04/02 10:15:45;;;;;;;1999.90;999.90;;;11.10;70.50;;;;;;5046970;28;20037;-82
2023/04/02 10:18:23;;;;;;;1999.90;999.90;;;11.50;68.60;;;;;;5055655;28;20029;-82
2023/04/02 10:20:51;;;;;;;1999.90;999.90;;;11.70;68.00;;;;;;5052013;28;20376;-84
2023/04/02 10:23:18;;;;;;;1999.90;999.90;;;12.20;67.30;;;;;;5052624;28;20029;-82
2023/04/02 10:25:56;;;;;;;1999.90;999.90;;;11.70;65.60;;;;;;5057630;28;20064;-91
2023/04/02 10:28:37;;;;;;;1999.90;999.90;;;11.50;66.30;;;;;;5052990;28;20140;-89
2023/04/02 10:31:21;;;;;;;1999.90;999.90;;;11.90;70.50;;;;;;5053427;28;20398;-85
2023/04/02 10:33:50;;;;;;;1999.90;999.90;;;12.20;65.10;;;;;;5058457;28;20486;-83
2023/04/02 10:36:42;;;;;;;1999.90;999.90;;;12.20;64.50;;;;;;5058097;28;20425;-82
2023/04/02 10:39:19;;;;;;;1999.90;999.90;;;12.90;65.30;;;;;;5051935;28;20482;-84
2023/04/02 10:42:04;;;;;;;1999.90;999.90;;;13.10;62.90;;;;;;5057272;28;20029;-81
2023/04/02 10:44:55;;;;;;;1999.90;999.90;;;13.90;61.20;;;;;;5045394;28;20108;-88
2023/04/02 10:47:44;;;;;;;1999.90;999.90;;;15.20;58.40;;;;;;5050687;28;20496;-82
2023/04/02 10:50:19;;;;;;;1999.90;999.90;;;15.00;56.30;;;;;;5052775;28;20025;-81
2023/04/02 10:52:48;;;;;;;1999.90;999.90;;;15.10;55.40;;;;;;5054408;28;20024;-81
2023/04/02 10:55:43;;;;;;;1999.90;999.90;;;15.20;54.30;;;;;;5052774;28;20064;-83
2023/04/02 10:58:23;;;;;;;1999.90;999.90;;;13.70;56.00;;;;;;5036626;28;20787;-88
2023/04/02 11:00:54;;;;;;;1999.90;999.90;;;12.40;61.70;;;;;;5046605;28;20537;-82
2023/04/02 11:03:47;;;;;;;1999.90;999.90;;;11.70;65.60;;;;;;5046950;28;20032;-89
2023/04/02 11:06:40;;;;;;;1999.90;999.90;;;11.30;67.40;;;;;;5057147;28;20039;-84
2023/04/02 11:09:17;;;;;;;1999.90;999.90;;;11.00;67.50;;;;;;5056591;28;20035;-86
2023/04/02 11:11:45;;;;;;;1999.90;999.90;;;10.80;68.00;;;;;;5056388;28;20035;-88
2023/04/02 11:14:19;;;;;;;1999.90;999.90;;;10.90;69.00;;;;;;5063990;28;20037;-85
2023/04/02 11:16:48;;;;;;;1999.90;999.90;;;10.80;68.50;;;;;;5054456;28;20032;-83
2023/04/02 11:19:14;;;;;;;1999.90;999.90;;;10.80;68.90;;;;;;5062304;28;20119;-85
2023/04/02 11:21:58;;;;;;;1999.90;999.90;;;11.00;67.90;;;;;;5057290;28;20107;-83
2023/04/02 11:24:33;;;;;;;1999.90;999.90;;;11.20;65.00;;;;;;5051350;28;20032;-84
2023/04/02 11:27:10;;;;;;;1999.90;999.90;;;11.60;66.60;;;;;;5054639;28;20021;-86
2023/04/02 11:29:48;;;;;;;1999.90;999.90;;;11.70;63.70;;;;;;5051586;28;20496;-86
2023/04/02 11:32:14;;;;;;;1999.90;999.90;;;11.90;62.90;;;;;;5053455;28;21344;-82
2023/04/02 11:34:39;;;;;;;1999.90;999.90;;;12.40;63.50;;;;;;5054970;28;20043;-83
2023/04/02 11:37:28;;;;;;;1999.90;999.90;;;12.80;61.90;;;;;;5057139;28;20063;-80
2023/04/02 11:39:58;;;;;;;1999.90;999.90;;;13.60;60.40;;;;;;5055483;28;20064;-81
2023/04/02 11:42:28;;;;;;;1999.90;999.90;;;13.50;58.50;;;;;;5053601;28;20100;-81
2023/04/02 11:44:57;;;;;;;1999.90;999.90;;;13.60;60.20;;;;;;5049988;28;20029;-81
2023/04/02 11:47:28;;;;;;;1999.90;999.90;;;13.80;60.30;;;;;;5048335;28;20021;-79
2023/04/02 11:49:54;;;;;;;1999.90;999.90;;;13.80;57.50;;;;;;5058620;28;20029;-86
2023/04/02 11:52:27;;;;;;;1999.90;999.90;;;13.70;56.70;;;;;;5048389;28;20210;-87
2023/04/02 11:55:02;;;;;;;1999.90;999.90;;;14.00;58.70;;;;;;5054407;28;20394;-82
2023/04/02 11:57:55;;;;;;;1999.90;999.90;;;14.30;56.70;;;;;;5052512;28;20086;-84
2023/04/02 12:00:44;;;;;;;1999.90;999.90;;;14.20;57.10;;;;;;5053886;28;20035;-89
2023/04/02 12:03:13;;;;;;;1999.90;999.90;;;14.40;55.90;;;;;;5053396;28;20039;-84
2023/04/02 12:05:50;;;;;;;1999.90;999.90;;;14.30;55.10;;;;;;5055687;28;20024;-85
2023/04/02 12:08:50;;;;;;;1999.90;999.90;;;14.50;57.00;;;;;;5049921;28;20066;-83
2023/04/02 12:11:17;;;;;;;1999.90;999.90;;;14.60;53.40;;;;;;5054313;28;20106;-81
2023/04/02 12:13:42;;;;;;;1999.90;999.90;;;14.90;55.50;;;;;;5053500;28;20138;-83
2023/04/02 12:16:31;;;;;;;1999.90;999.90;;;15.60;52.70;;;;;;5052300;28;20494;-83
2023/04/02 12:18:58;;;;;;;1999.90;999.90;;;15.90;50.70;;;;;;5055407;28;20043;-84
2023/04/02 12:21:27;;;;;;;1999.90;999.90;;;15.80;49.20;;;;;;5056192;28;20483;-82
2023/04/02 12:23:56;;;;;;;1999.90;999.90;;;15.80;49.70;;;;;;5059061;28;20158;-83
2023/04/02 12:26:25;;;;;;;1999.90;999.90;;;15.10;50.50;;;;;;5049235;28;20095;-82
2023/04/02 12:28:50;;;;;;;1999.90;999.90;;;15.20;51.00;;;;;;5055220;28;20029;-81
2023/04/02 12:31:19;;;;;;;1999.90;999.90;;;15.00;51.70;;;;;;5048479;28;20017;-81
2023/04/02 12:33:45;;;;;;;1999.90;999.90;;;14.90;50.80;;;;;;5057302;28;20353;-81
2023/04/02 12:36:13;;;;;;;1999.90;999.90;;;14.70;52.20;;;;;;5053935;28;20025;-81
2023/04/02 12:38:55;;;;;;;1999.90;999.90;;;14.40;54.30;;;;;;5055964;28;20072;-83
2023/04/02 12:41:22;;;;;;;1999.90;999.90;;;14.00;56.90;;;;;;5060165;28;20033;-81